sensor_id;sensor_type;location;lat;lon;timestamp;P1;durP1;ratioP1;P2;durP2;ratioP2
8568;SDS011;4322;51.104;-4.162;2022-09-13T00:00:02;1.40;;;1.40;;
8568;SDS011;4322;51.104;-4.162;2022-09-13T00:02:31;1.20;;;1.20;;
8568;SDS011;4322;51.104;-4.162;2022-09-13T00:04:59;1.30;;;1.30;;
8568;SDS011;4322;51.104;-4.162;2022-09-13T00:07:27;1.33;;;1.33;;
8568;SDS011;4322;51.104;-4.162;2022-09-13T00:09:56;1.30;;;1.30;;
8568;SDS011;4322;51.104;-4.162;2022-09-13T00:12:24;1.30;;;1.30;;
8568;SDS011;4322;51.104;-4.162;2022-09-13T00:14:52;1.20;;;1.20;;
8568;SDS011;4322;51.104;-4.162;2022-09-13T00:17:20;1.00;;;1.00;;
8568;SDS011;4322;51.104;-4.162;2022-09-13T00:19:48;1.20;;;1.20;;
8568;SDS011;4322;51.104;-4.162;2022-09-13T00:22:16;1.20;;;1.20;;
8568;SDS011;4322;51.104;-4.162;2022-09-13T00:24:44;1.10;;;1.10;;
8568;SDS011;4322;51.104;-4.162;2022-09-13T00:27:13;1.30;;;1.30;;
8568;SDS011;4322;51.104;-4.162;2022-09-13T00:29:41;1.07;;;1.07;;
8568;SDS011;4322;51.104;-4.162;2022-09-13T00:32:09;1.13;;;1.13;;
8568;SDS011;4322;51.104;-4.162;2022-09-13T00:34:37;1.17;;;1.17;;
8568;SDS011;4322;51.104;-4.162;2022-09-13T00:37:04;1.23;;;1.23;;
8568;SDS011;4322;51.104;-4.162;2022-09-13T00:39:34;1.17;;;1.17;;
8568;SDS011;4322;51.104;-4.162;2022-09-13T00:42:02;1.10;;;1.10;;
8568;SDS011;4322;51.104;-4.162;2022-09-13T00:44:51;1.10;;;1.10;;
8568;SDS011;4322;51.104;-4.162;2022-09-13T00:47:24;1.10;;;1.10;;
8568;SDS011;4322;51.104;-4.162;2022-09-13T00:49:56;1.20;;;1.20;;
8568;SDS011;4322;51.104;-4.162;2022-09-13T00:52:28;1.23;;;1.23;;
8568;SDS011;4322;51.104;-4.162;2022-09-13T00:55:02;0.90;;;0.90;;
8568;SDS011;4322;51.104;-4.162;2022-09-13T00:57:35;1.00;;;1.00;;
8568;SDS011;4322;51.104;-4.162;2022-09-13T01:00:07;0.97;;;0.97;;
8568;SDS011;4322;51.104;-4.162;2022-09-13T01:02:38;0.90;;;0.90;;
8568;SDS011;4322;51.104;-4.162;2022-09-13T01:05:08;0.90;;;0.90;;
8568;SDS011;4322;51.104;-4.162;2022-09-13T01:07:37;1.00;;;1.00;;
8568;SDS011;4322;51.104;-4.162;2022-09-13T01:10:06;0.90;;;0.90;;
8568;SDS011;4322;51.104;-4.162;2022-09-13T01:12:36;0.93;;;0.93;;
8568;SDS011;4322;51.104;-4.162;2022-09-13T01:15:12;0.90;;;0.90;;
8568;SDS011;4322;51.104;-4.162;2022-09-13T01:17:40;1.00;;;1.00;;
8568;SDS011;4322;51.104;-4.162;2022-09-13T01:20:09;0.90;;;0.90;;
8568;SDS011;4322;51.104;-4.162;2022-09-13T01:22:57;0.90;;;0.90;;
8568;SDS011;4322;51.104;-4.162;2022-09-13T01:26:09;1.00;;;1.00;;
8568;SDS011;4322;51.104;-4.162;2022-09-13T01:29:08;0.80;;;0.80;;
8568;SDS011;4322;51.104;-4.162;2022-09-13T01:31:56;1.00;;;1.00;;
8568;SDS011;4322;51.104;-4.162;2022-09-13T01:34:34;0.83;;;0.83;;
8568;SDS011;4322;51.104;-4.162;2022-09-13T01:37:15;1.00;;;1.00;;
8568;SDS011;4322;51.104;-4.162;2022-09-13T01:39:58;0.90;;;0.90;;
8568;SDS011;4322;51.104;-4.162;2022-09-13T01:42:40;0.93;;;0.93;;
8568;SDS011;4322;51.104;-4.162;2022-09-13T01:45:24;1.10;;;1.10;;
8568;SDS011;4322;51.104;-4.162;2022-09-13T01:48:01;1.20;;;1.20;;
8568;SDS011;4322;51.104;-4.162;2022-09-13T01:50:38;1.00;;;1.00;;
8568;SDS011;4322;51.104;-4.162;2022-09-13T01:53:13;1.00;;;1.00;;
8568;SDS011;4322;51.104;-4.162;2022-09-13T01:55:50;1.10;;;1.10;;
8568;SDS011;4322;51.104;-4.162;2022-09-13T01:58:25;1.17;;;1.17;;
8568;SDS011;4322;51.104;-4.162;2022-09-13T02:00:58;1.10;;;1.10;;
8568;SDS011;4322;51.104;-4.162;2022-09-13T02:03:36;0.90;;;0.90;;
8568;SDS011;4322;51.104;-4.162;2022-09-13T02:06:10;0.90;;;0.90;;
8568;SDS011;4322;51.104;-4.162;2022-09-13T02:08:42;0.83;;;0.83;;
8568;SDS011;4322;51.104;-4.162;2022-09-13T02:11:14;0.90;;;0.90;;
8568;SDS011;4322;51.104;-4.162;2022-09-13T02:13:46;0.97;;;0.97;;
8568;SDS011;4322;51.104;-4.162;2022-09-13T02:16:24;1.00;;;1.00;;
8568;SDS011;4322;51.104;-4.162;2022-09-13T02:19:00;0.90;;;0.90;;
8568;SDS011;4322;51.104;-4.162;2022-09-13T02:21:35;1.10;;;1.10;;
8568;SDS011;4322;51.104;-4.162;2022-09-13T02:24:06;0.90;;;0.90;;
8568;SDS011;4322;51.104;-4.162;2022-09-13T02:26:36;0.90;;;0.90;;
8568;SDS011;4322;51.104;-4.162;2022-09-13T02:29:08;0.90;;;0.90;;
8568;SDS011;4322;51.104;-4.162;2022-09-13T02:31:43;0.90;;;0.90;;
8568;SDS011;4322;51.104;-4.162;2022-09-13T02:34:18;1.00;;;1.00;;
8568;SDS011;4322;51.104;-4.162;2022-09-13T02:36:49;0.93;;;0.93;;
8568;SDS011;4322;51.104;-4.162;2022-09-13T02:39:20;1.10;;;1.10;;
8568;SDS011;4322;51.104;-4.162;2022-09-13T02:41:51;1.00;;;1.00;;
8568;SDS011;4322;51.104;-4.162;2022-09-13T02:44:27;1.00;;;1.00;;
8568;SDS011;4322;51.104;-4.162;2022-09-13T02:47:07;0.87;;;0.87;;
8568;SDS011;4322;51.104;-4.162;2022-09-13T02:49:46;1.20;;;1.20;;
8568;SDS011;4322;51.104;-4.162;2022-09-13T02:52:22;1.10;;;1.10;;
8568;SDS011;4322;51.104;-4.162;2022-09-13T02:55:03;1.00;;;1.00;;
8568;SDS011;4322;51.104;-4.162;2022-09-13T02:57:39;1.23;;;1.23;;
8568;SDS011;4322;51.104;-4.162;2022-09-13T03:00:16;1.10;;;1.10;;
8568;SDS011;4322;51.104;-4.162;2022-09-13T03:02:44;1.13;;;1.13;;
8568;SDS011;4322;51.104;-4.162;2022-09-13T03:05:17;1.40;;;1.40;;
8568;SDS011;4322;51.104;-4.162;2022-09-13T03:07:45;1.17;;;1.17;;
8568;SDS011;4322;51.104;-4.162;2022-09-13T03:10:14;1.17;;;1.17;;
8568;SDS011;4322;51.104;-4.162;2022-09-13T03:12:48;0.90;;;0.90;;
8568;SDS011;4322;51.104;-4.162;2022-09-13T03:15:29;1.10;;;1.10;;
8568;SDS011;4322;51.104;-4.162;2022-09-13T03:18:11;1.10;;;1.10;;
8568;SDS011;4322;51.104;-4.162;2022-09-13T03:20:53;1.23;;;1.23;;
8568;SDS011;4322;51.104;-4.162;2022-09-13T03:23:34;1.27;;;1.27;;
8568;SDS011;4322;51.104;-4.162;2022-09-13T03:26:15;1.30;;;1.30;;
8568;SDS011;4322;51.104;-4.162;2022-09-13T03:28:53;1.27;;;1.27;;
8568;SDS011;4322;51.104;-4.162;2022-09-13T03:31:31;1.30;;;1.30;;
8568;SDS011;4322;51.104;-4.162;2022-09-13T03:34:06;1.10;;;1.10;;
8568;SDS011;4322;51.104;-4.162;2022-09-13T03:36:41;1.10;;;1.10;;
8568;SDS011;4322;51.104;-4.162;2022-09-13T03:39:15;1.20;;;1.20;;
8568;SDS011;4322;51.104;-4.162;2022-09-13T03:41:52;1.23;;;1.23;;
8568;SDS011;4322;51.104;-4.162;2022-09-13T03:44:25;1.20;;;1.20;;
8568;SDS011;4322;51.104;-4.162;2022-09-13T03:46:56;1.20;;;1.20;;
8568;SDS011;4322;51.104;-4.162;2022-09-13T03:49:27;1.20;;;1.20;;
8568;SDS011;4322;51.104;-4.162;2022-09-13T03:51:58;1.40;;;1.40;;
8568;SDS011;4322;51.104;-4.162;2022-09-13T03:54:27;1.70;;;1.70;;
8568;SDS011;4322;51.104;-4.162;2022-09-13T03:57:08;1.47;;;1.47;;
8568;SDS011;4322;51.104;-4.162;2022-09-13T03:59:38;1.60;;;1.60;;
8568;SDS011;4322;51.104;-4.162;2022-09-13T04:02:09;1.70;;;1.70;;
8568;SDS011;4322;51.104;-4.162;2022-09-13T04:04:38;1.80;;;1.80;;
8568;SDS011;4322;51.104;-4.162;2022-09-13T04:07:08;1.90;;;1.90;;
8568;SDS011;4322;51.104;-4.162;2022-09-13T04:09:37;2.13;;;2.10;;
8568;SDS011;4322;51.104;-4.162;2022-09-13T04:12:06;2.10;;;2.10;;
8568;SDS011;4322;51.104;-4.162;2022-09-13T04:14:35;2.50;;;2.40;;
8568;SDS011;4322;51.104;-4.162;2022-09-13T04:17:03;2.40;;;2.30;;
8568;SDS011;4322;51.104;-4.162;2022-09-13T04:19:32;2.60;;;2.50;;
8568;SDS011;4322;51.104;-4.162;2022-09-13T04:22:00;2.87;;;2.77;;
8568;SDS011;4322;51.104;-4.162;2022-09-13T04:24:30;2.90;;;2.80;;
8568;SDS011;4322;51.104;-4.162;2022-09-13T04:26:59;2.40;;;2.30;;
8568;SDS011;4322;51.104;-4.162;2022-09-13T04:29:28;3.10;;;3.00;;
8568;SDS011;4322;51.104;-4.162;2022-09-13T04:31:57;2.90;;;2.80;;
8568;SDS011;4322;51.104;-4.162;2022-09-13T04:34:25;2.77;;;2.67;;
8568;SDS011;4322;51.104;-4.162;2022-09-13T04:36:53;3.20;;;3.10;;
8568;SDS011;4322;51.104;-4.162;2022-09-13T04:39:22;2.90;;;2.80;;
8568;SDS011;4322;51.104;-4.162;2022-09-13T04:41:51;3.30;;;3.20;;
8568;SDS011;4322;51.104;-4.162;2022-09-13T04:44:20;3.30;;;3.20;;
8568;SDS011;4322;51.104;-4.162;2022-09-13T04:46:49;2.90;;;2.80;;
8568;SDS011;4322;51.104;-4.162;2022-09-13T04:49:17;2.90;;;2.80;;
8568;SDS011;4322;51.104;-4.162;2022-09-13T04:51:47;3.50;;;3.40;;
8568;SDS011;4322;51.104;-4.162;2022-09-13T04:54:16;3.20;;;3.10;;
8568;SDS011;4322;51.104;-4.162;2022-09-13T04:56:44;3.60;;;3.50;;
8568;SDS011;4322;51.104;-4.162;2022-09-13T04:59:14;3.20;;;3.10;;
8568;SDS011;4322;51.104;-4.162;2022-09-13T05:01:42;3.17;;;3.07;;
8568;SDS011;4322;51.104;-4.162;2022-09-13T05:04:10;3.20;;;3.10;;
8568;SDS011;4322;51.104;-4.162;2022-09-13T05:06:38;2.93;;;2.83;;
8568;SDS011;4322;51.104;-4.162;2022-09-13T05:09:06;3.30;;;3.20;;
8568;SDS011;4322;51.104;-4.162;2022-09-13T05:11:39;3.03;;;2.93;;
8568;SDS011;4322;51.104;-4.162;2022-09-13T05:14:08;3.20;;;3.10;;
8568;SDS011;4322;51.104;-4.162;2022-09-13T05:16:38;2.70;;;2.60;;
8568;SDS011;4322;51.104;-4.162;2022-09-13T05:19:07;2.97;;;2.87;;
8568;SDS011;4322;51.104;-4.162;2022-09-13T05:21:35;3.30;;;3.20;;
8568;SDS011;4322;51.104;-4.162;2022-09-13T05:24:03;3.10;;;3.00;;
8568;SDS011;4322;51.104;-4.162;2022-09-13T05:26:31;3.80;;;3.70;;
8568;SDS011;4322;51.104;-4.162;2022-09-13T05:29:00;3.43;;;3.33;;
8568;SDS011;4322;51.104;-4.162;2022-09-13T05:31:29;3.90;;;3.80;;
8568;SDS011;4322;51.104;-4.162;2022-09-13T05:34:00;3.53;;;3.43;;
8568;SDS011;4322;51.104;-4.162;2022-09-13T05:36:29;3.63;;;3.53;;
8568;SDS011;4322;51.104;-4.162;2022-09-13T05:38:57;3.83;;;3.73;;
8568;SDS011;4322;51.104;-4.162;2022-09-13T05:41:45;3.97;;;3.80;;
8568;SDS011;4322;51.104;-4.162;2022-09-13T05:44:14;3.10;;;3.00;;
8568;SDS011;4322;51.104;-4.162;2022-09-13T05:46:42;3.50;;;3.40;;
8568;SDS011;4322;51.104;-4.162;2022-09-13T05:49:14;3.40;;;3.30;;
8568;SDS011;4322;51.104;-4.162;2022-09-13T05:51:42;3.40;;;3.30;;
8568;SDS011;4322;51.104;-4.162;2022-09-13T05:54:11;3.60;;;3.50;;
8568;SDS011;4322;51.104;-4.162;2022-09-13T05:56:39;3.33;;;3.23;;
8568;SDS011;4322;51.104;-4.162;2022-09-13T05:59:09;3.20;;;3.10;;
8568;SDS011;4322;51.104;-4.162;2022-09-13T06:01:38;3.00;;;2.90;;
8568;SDS011;4322;51.104;-4.162;2022-09-13T06:04:06;2.90;;;2.80;;
8568;SDS011;4322;51.104;-4.162;2022-09-13T06:06:35;3.37;;;3.27;;
8568;SDS011;4322;51.104;-4.162;2022-09-13T06:09:04;3.30;;;3.20;;
8568;SDS011;4322;51.104;-4.162;2022-09-13T06:11:33;3.27;;;3.17;;
8568;SDS011;4322;51.104;-4.162;2022-09-13T06:14:01;3.40;;;3.30;;
8568;SDS011;4322;51.104;-4.162;2022-09-13T06:16:29;3.20;;;3.10;;
8568;SDS011;4322;51.104;-4.162;2022-09-13T06:18:57;3.77;;;3.67;;
8568;SDS011;4322;51.104;-4.162;2022-09-13T06:21:26;3.47;;;3.37;;
8568;SDS011;4322;51.104;-4.162;2022-09-13T06:23:56;3.27;;;3.17;;
8568;SDS011;4322;51.104;-4.162;2022-09-13T06:26:25;3.77;;;3.67;;
8568;SDS011;4322;51.104;-4.162;2022-09-13T06:28:55;3.63;;;3.53;;
8568;SDS011;4322;51.104;-4.162;2022-09-13T06:31:24;4.00;;;3.90;;
8568;SDS011;4322;51.104;-4.162;2022-09-13T06:33:54;3.57;;;3.47;;
8568;SDS011;4322;51.104;-4.162;2022-09-13T06:36:23;3.67;;;3.57;;
8568;SDS011;4322;51.104;-4.162;2022-09-13T06:38:52;3.80;;;3.70;;
8568;SDS011;4322;51.104;-4.162;2022-09-13T06:41:22;3.33;;;3.23;;
8568;SDS011;4322;51.104;-4.162;2022-09-13T06:43:53;3.73;;;3.63;;
8568;SDS011;4322;51.104;-4.162;2022-09-13T06:46:23;3.50;;;3.40;;
8568;SDS011;4322;51.104;-4.162;2022-09-13T06:48:52;3.23;;;3.13;;
8568;SDS011;4322;51.104;-4.162;2022-09-13T06:51:21;2.93;;;2.83;;
8568;SDS011;4322;51.104;-4.162;2022-09-13T06:53:51;3.03;;;2.93;;
8568;SDS011;4322;51.104;-4.162;2022-09-13T06:56:24;2.80;;;2.70;;
8568;SDS011;4322;51.104;-4.162;2022-09-13T06:58:54;3.10;;;3.00;;
8568;SDS011;4322;51.104;-4.162;2022-09-13T07:01:24;2.77;;;2.67;;
8568;SDS011;4322;51.104;-4.162;2022-09-13T07:03:54;2.70;;;2.60;;
8568;SDS011;4322;51.104;-4.162;2022-09-13T07:06:26;1.97;;;1.97;;
8568;SDS011;4322;51.104;-4.162;2022-09-13T07:08:56;2.40;;;2.30;;
8568;SDS011;4322;51.104;-4.162;2022-09-13T07:11:28;2.80;;;2.70;;
8568;SDS011;4322;51.104;-4.162;2022-09-13T07:13:57;2.40;;;2.30;;
8568;SDS011;4322;51.104;-4.162;2022-09-13T07:16:26;2.53;;;2.43;;
8568;SDS011;4322;51.104;-4.162;2022-09-13T07:18:56;2.03;;;2.03;;
8568;SDS011;4322;51.104;-4.162;2022-09-13T07:21:26;2.13;;;2.10;;
8568;SDS011;4322;51.104;-4.162;2022-09-13T07:23:55;2.00;;;2.00;;
8568;SDS011;4322;51.104;-4.162;2022-09-13T07:26:23;1.97;;;1.97;;
8568;SDS011;4322;51.104;-4.162;2022-09-13T07:28:54;1.73;;;1.73;;
8568;SDS011;4322;51.104;-4.162;2022-09-13T07:31:25;1.90;;;1.90;;
8568;SDS011;4322;51.104;-4.162;2022-09-13T07:33:56;1.80;;;1.80;;
8568;SDS011;4322;51.104;-4.162;2022-09-13T07:36:26;1.90;;;1.90;;
8568;SDS011;4322;51.104;-4.162;2022-09-13T07:38:57;1.87;;;1.87;;
8568;SDS011;4322;51.104;-4.162;2022-09-13T07:41:25;1.70;;;1.70;;
8568;SDS011;4322;51.104;-4.162;2022-09-13T07:43:56;1.90;;;1.90;;
8568;SDS011;4322;51.104;-4.162;2022-09-13T07:46:26;1.80;;;1.80;;
8568;SDS011;4322;51.104;-4.162;2022-09-13T07:48:58;1.80;;;1.80;;
8568;SDS011;4322;51.104;-4.162;2022-09-13T07:51:27;1.93;;;1.93;;
8568;SDS011;4322;51.104;-4.162;2022-09-13T07:53:57;2.10;;;2.10;;
8568;SDS011;4322;51.104;-4.162;2022-09-13T07:56:27;2.40;;;2.30;;
8568;SDS011;4322;51.104;-4.162;2022-09-13T07:58:58;2.30;;;2.20;;
8568;SDS011;4322;51.104;-4.162;2022-09-13T08:01:28;2.40;;;2.30;;
8568;SDS011;4322;51.104;-4.162;2022-09-13T08:04:00;2.60;;;2.50;;
8568;SDS011;4322;51.104;-4.162;2022-09-13T08:06:30;2.50;;;2.40;;
8568;SDS011;4322;51.104;-4.162;2022-09-13T08:08:59;2.73;;;2.63;;
8568;SDS011;4322;51.104;-4.162;2022-09-13T08:11:29;3.20;;;3.10;;
8568;SDS011;4322;51.104;-4.162;2022-09-13T08:14:00;3.30;;;3.20;;
8568;SDS011;4322;51.104;-4.162;2022-09-13T08:16:28;3.00;;;2.90;;
8568;SDS011;4322;51.104;-4.162;2022-09-13T08:18:57;3.40;;;3.30;;
8568;SDS011;4322;51.104;-4.162;2022-09-13T08:21:30;3.40;;;3.30;;
8568;SDS011;4322;51.104;-4.162;2022-09-13T08:23:59;3.60;;;3.50;;
8568;SDS011;4322;51.104;-4.162;2022-09-13T08:26:29;3.17;;;3.07;;
8568;SDS011;4322;51.104;-4.162;2022-09-13T08:29:00;4.20;;;4.00;;
8568;SDS011;4322;51.104;-4.162;2022-09-13T08:31:29;3.73;;;3.63;;
8568;SDS011;4322;51.104;-4.162;2022-09-13T08:33:57;4.10;;;3.90;;
8568;SDS011;4322;51.104;-4.162;2022-09-13T08:36:26;3.90;;;3.80;;
8568;SDS011;4322;51.104;-4.162;2022-09-13T08:38:56;3.70;;;3.60;;
8568;SDS011;4322;51.104;-4.162;2022-09-13T08:41:32;3.90;;;3.80;;
8568;SDS011;4322;51.104;-4.162;2022-09-13T08:44:19;4.50;;;4.30;;
8568;SDS011;4322;51.104;-4.162;2022-09-13T08:46:55;4.03;;;3.87;;
8568;SDS011;4322;51.104;-4.162;2022-09-13T08:49:31;5.20;;;5.00;;
8568;SDS011;4322;51.104;-4.162;2022-09-13T08:52:02;5.30;;;5.10;;
8568;SDS011;4322;51.104;-4.162;2022-09-13T08:54:38;6.40;;;6.10;;
8568;SDS011;4322;51.104;-4.162;2022-09-13T08:57:07;5.60;;;5.40;;
8568;SDS011;4322;51.104;-4.162;2022-09-13T08:59:46;5.60;;;5.40;;
8568;SDS011;4322;51.104;-4.162;2022-09-13T09:02:40;5.47;;;5.27;;
8568;SDS011;4322;51.104;-4.162;2022-09-13T09:05:18;5.83;;;5.60;;
8568;SDS011;4322;51.104;-4.162;2022-09-13T09:07:48;5.63;;;5.43;;
8568;SDS011;4322;51.104;-4.162;2022-09-13T09:10:22;6.20;;;5.90;;
8568;SDS011;4322;51.104;-4.162;2022-09-13T09:12:53;6.50;;;6.20;;
8568;SDS011;4322;51.104;-4.162;2022-09-13T09:15:25;6.20;;;5.90;;
8568;SDS011;4322;51.104;-4.162;2022-09-13T09:17:59;6.23;;;5.93;;
8568;SDS011;4322;51.104;-4.162;2022-09-13T09:20:33;5.30;;;5.10;;
8568;SDS011;4322;51.104;-4.162;2022-09-13T09:23:05;6.10;;;5.80;;
8568;SDS011;4322;51.104;-4.162;2022-09-13T09:25:45;6.10;;;5.80;;
8568;SDS011;4322;51.104;-4.162;2022-09-13T09:28:14;5.53;;;5.33;;
8568;SDS011;4322;51.104;-4.162;2022-09-13T09:30:48;6.17;;;5.87;;
8568;SDS011;4322;51.104;-4.162;2022-09-13T09:33:29;5.27;;;5.07;;
8568;SDS011;4322;51.104;-4.162;2022-09-13T09:36:10;5.97;;;5.67;;
8568;SDS011;4322;51.104;-4.162;2022-09-13T09:38:50;6.20;;;5.90;;
8568;SDS011;4322;51.104;-4.162;2022-09-13T09:41:21;5.70;;;5.50;;
8568;SDS011;4322;51.104;-4.162;2022-09-13T09:43:55;5.83;;;5.57;;
8568;SDS011;4322;51.104;-4.162;2022-09-13T09:46:31;6.10;;;5.80;;
8568;SDS011;4322;51.104;-4.162;2022-09-13T09:49:04;5.40;;;5.20;;
8568;SDS011;4322;51.104;-4.162;2022-09-13T09:52:00;5.17;;;4.97;;
8568;SDS011;4322;51.104;-4.162;2022-09-13T09:54:33;5.13;;;4.93;;
8568;SDS011;4322;51.104;-4.162;2022-09-13T09:57:03;4.80;;;4.60;;
8568;SDS011;4322;51.104;-4.162;2022-09-13T09:59:33;5.90;;;5.60;;
8568;SDS011;4322;51.104;-4.162;2022-09-13T10:02:12;5.53;;;5.33;;
8568;SDS011;4322;51.104;-4.162;2022-09-13T10:04:42;6.13;;;5.83;;
8568;SDS011;4322;51.104;-4.162;2022-09-13T10:07:23;5.27;;;5.07;;
8568;SDS011;4322;51.104;-4.162;2022-09-13T10:09:56;6.70;;;6.40;;
8568;SDS011;4322;51.104;-4.162;2022-09-13T10:12:26;5.10;;;4.90;;
8568;SDS011;4322;51.104;-4.162;2022-09-13T10:15:09;5.27;;;5.07;;
8568;SDS011;4322;51.104;-4.162;2022-09-13T10:17:44;5.00;;;4.80;;
8568;SDS011;4322;51.104;-4.162;2022-09-13T10:20:28;5.50;;;5.30;;
8568;SDS011;4322;51.104;-4.162;2022-09-13T10:23:18;5.13;;;4.93;;
8568;SDS011;4322;51.104;-4.162;2022-09-13T10:25:57;5.57;;;5.37;;
8568;SDS011;4322;51.104;-4.162;2022-09-13T10:28:29;5.57;;;5.37;;
8568;SDS011;4322;51.104;-4.162;2022-09-13T10:31:00;5.33;;;5.13;;
8568;SDS011;4322;51.104;-4.162;2022-09-13T10:33:32;5.37;;;5.17;;
8568;SDS011;4322;51.104;-4.162;2022-09-13T10:36:04;4.97;;;4.77;;
8568;SDS011;4322;51.104;-4.162;2022-09-13T10:38:35;4.80;;;4.60;;
8568;SDS011;4322;51.104;-4.162;2022-09-13T10:41:18;4.63;;;4.43;;
8568;SDS011;4322;51.104;-4.162;2022-09-13T10:43:49;5.10;;;4.90;;
8568;SDS011;4322;51.104;-4.162;2022-09-13T10:46:24;4.87;;;4.67;;
8568;SDS011;4322;51.104;-4.162;2022-09-13T10:48:56;4.83;;;4.63;;
8568;SDS011;4322;51.104;-4.162;2022-09-13T10:51:30;5.00;;;4.80;;
8568;SDS011;4322;51.104;-4.162;2022-09-13T10:54:09;4.93;;;4.73;;
8568;SDS011;4322;51.104;-4.162;2022-09-13T10:56:44;4.90;;;4.70;;
8568;SDS011;4322;51.104;-4.162;2022-09-13T10:59:14;5.00;;;4.80;;
8568;SDS011;4322;51.104;-4.162;2022-09-13T11:05:04;5.23;;;5.03;;
8568;SDS011;4322;51.104;-4.162;2022-09-13T11:07:45;5.47;;;5.27;;
8568;SDS011;4322;51.104;-4.162;2022-09-13T11:10:53;5.90;;;5.60;;
8568;SDS011;4322;51.104;-4.162;2022-09-13T11:13:33;5.63;;;5.43;;
8568;SDS011;4322;51.104;-4.162;2022-09-13T11:16:15;6.10;;;5.80;;
8568;SDS011;4322;51.104;-4.162;2022-09-13T11:18:58;6.17;;;5.87;;
8568;SDS011;4322;51.104;-4.162;2022-09-13T11:21:44;6.30;;;6.00;;
8568;SDS011;4322;51.104;-4.162;2022-09-13T11:24:28;6.70;;;6.40;;
8568;SDS011;4322;51.104;-4.162;2022-09-13T11:27:11;6.00;;;5.70;;
8568;SDS011;4322;51.104;-4.162;2022-09-13T11:30:02;6.20;;;5.90;;
8568;SDS011;4322;51.104;-4.162;2022-09-13T11:35:32;5.70;;;5.50;;
8568;SDS011;4322;51.104;-4.162;2022-09-13T11:38:16;4.90;;;4.70;;
8568;SDS011;4322;51.104;-4.162;2022-09-13T11:41:00;4.77;;;4.57;;
8568;SDS011;4322;51.104;-4.162;2022-09-13T11:43:43;5.30;;;5.10;;
8568;SDS011;4322;51.104;-4.162;2022-09-13T11:46:23;5.37;;;5.17;;
8568;SDS011;4322;51.104;-4.162;2022-09-13T11:49:06;5.17;;;4.97;;
8568;SDS011;4322;51.104;-4.162;2022-09-13T11:51:54;5.03;;;4.83;;
8568;SDS011;4322;51.104;-4.162;2022-09-13T11:54:34;4.97;;;4.77;;
8568;SDS011;4322;51.104;-4.162;2022-09-13T11:57:22;5.70;;;5.50;;
8568;SDS011;4322;51.104;-4.162;2022-09-13T11:59:54;5.43;;;5.23;;
8568;SDS011;4322;51.104;-4.162;2022-09-13T12:02:26;5.40;;;5.20;;
8568;SDS011;4322;51.104;-4.162;2022-09-13T12:05:07;5.10;;;4.90;;
8568;SDS011;4322;51.104;-4.162;2022-09-13T12:07:48;5.30;;;5.10;;
8568;SDS011;4322;51.104;-4.162;2022-09-13T12:10:24;4.93;;;4.73;;
8568;SDS011;4322;51.104;-4.162;2022-09-13T12:12:56;5.40;;;5.20;;
8568;SDS011;4322;51.104;-4.162;2022-09-13T12:15:28;5.90;;;5.60;;
8568;SDS011;4322;51.104;-4.162;2022-09-13T12:18:04;5.53;;;5.33;;
8568;SDS011;4322;51.104;-4.162;2022-09-13T12:20:38;4.77;;;4.57;;
8568;SDS011;4322;51.104;-4.162;2022-09-13T12:23:11;5.30;;;5.10;;
8568;SDS011;4322;51.104;-4.162;2022-09-13T12:25:45;4.90;;;4.70;;
8568;SDS011;4322;51.104;-4.162;2022-09-13T12:28:18;5.10;;;4.90;;
8568;SDS011;4322;51.104;-4.162;2022-09-13T12:30:51;4.90;;;4.70;;
8568;SDS011;4322;51.104;-4.162;2022-09-13T12:33:22;5.00;;;4.80;;
8568;SDS011;4322;51.104;-4.162;2022-09-13T12:35:53;4.40;;;4.20;;
8568;SDS011;4322;51.104;-4.162;2022-09-13T12:41:55;4.60;;;4.40;;
8568;SDS011;4322;51.104;-4.162;2022-09-13T12:44:51;5.00;;;4.80;;
8568;SDS011;4322;51.104;-4.162;2022-09-13T12:47:37;4.63;;;4.43;;
8568;SDS011;4322;51.104;-4.162;2022-09-13T12:53:27;4.33;;;4.13;;
8568;SDS011;4322;51.104;-4.162;2022-09-13T12:56:22;4.20;;;4.00;;
8568;SDS011;4322;51.104;-4.162;2022-09-13T12:59:09;4.20;;;4.00;;
8568;SDS011;4322;51.104;-4.162;2022-09-13T13:01:51;3.90;;;3.80;;
8568;SDS011;4322;51.104;-4.162;2022-09-13T13:04:20;3.90;;;3.80;;
8568;SDS011;4322;51.104;-4.162;2022-09-13T13:06:52;3.73;;;3.63;;
8568;SDS011;4322;51.104;-4.162;2022-09-13T13:09:27;3.80;;;3.70;;
8568;SDS011;4322;51.104;-4.162;2022-09-13T13:12:00;3.57;;;3.47;;
8568;SDS011;4322;51.104;-4.162;2022-09-13T13:14:44;3.80;;;3.70;;
8568;SDS011;4322;51.104;-4.162;2022-09-13T13:17:38;3.47;;;3.37;;
8568;SDS011;4322;51.104;-4.162;2022-09-13T13:23:23;3.67;;;3.57;;
8568;SDS011;4322;51.104;-4.162;2022-09-13T13:26:05;4.43;;;4.23;;
8568;SDS011;4322;51.104;-4.162;2022-09-13T13:31:43;3.60;;;3.50;;
8568;SDS011;4322;51.104;-4.162;2022-09-13T13:34:29;3.80;;;3.70;;
8568;SDS011;4322;51.104;-4.162;2022-09-13T13:37:03;3.73;;;3.63;;
8568;SDS011;4322;51.104;-4.162;2022-09-13T13:39:33;3.47;;;3.37;;
8568;SDS011;4322;51.104;-4.162;2022-09-13T13:42:21;3.93;;;3.83;;
8568;SDS011;4322;51.104;-4.162;2022-09-13T13:44:55;3.93;;;3.83;;
8568;SDS011;4322;51.104;-4.162;2022-09-13T13:53:51;4.07;;;3.87;;
8568;SDS011;4322;51.104;-4.162;2022-09-13T13:56:24;3.83;;;3.73;;
8568;SDS011;4322;51.104;-4.162;2022-09-13T13:59:06;4.87;;;4.67;;
8568;SDS011;4322;51.104;-4.162;2022-09-13T14:01:43;4.70;;;4.50;;
8568;SDS011;4322;51.104;-4.162;2022-09-13T14:10:41;4.50;;;4.30;;
8568;SDS011;4322;51.104;-4.162;2022-09-13T14:13:20;4.73;;;4.53;;
8568;SDS011;4322;51.104;-4.162;2022-09-13T14:16:05;5.10;;;4.90;;
8568;SDS011;4322;51.104;-4.162;2022-09-13T14:18:51;4.50;;;4.30;;
8568;SDS011;4322;51.104;-4.162;2022-09-13T14:21:32;4.47;;;4.27;;
8568;SDS011;4322;51.104;-4.162;2022-09-13T14:26:52;4.63;;;4.43;;
8568;SDS011;4322;51.104;-4.162;2022-09-13T14:29:24;5.20;;;5.00;;
8568;SDS011;4322;51.104;-4.162;2022-09-13T14:31:54;4.57;;;4.37;;
8568;SDS011;4322;51.104;-4.162;2022-09-13T14:34:30;4.83;;;4.63;;
8568;SDS011;4322;51.104;-4.162;2022-09-13T14:37:00;4.80;;;4.60;;
8568;SDS011;4322;51.104;-4.162;2022-09-13T14:39:30;4.30;;;4.10;;
8568;SDS011;4322;51.104;-4.162;2022-09-13T14:42:01;4.63;;;4.43;;
8568;SDS011;4322;51.104;-4.162;2022-09-13T14:44:33;4.63;;;4.43;;
8568;SDS011;4322;51.104;-4.162;2022-09-13T14:47:03;4.97;;;4.77;;
8568;SDS011;4322;51.104;-4.162;2022-09-13T14:49:39;5.10;;;4.90;;
8568;SDS011;4322;51.104;-4.162;2022-09-13T14:52:15;4.73;;;4.53;;
8568;SDS011;4322;51.104;-4.162;2022-09-13T14:54:50;5.20;;;5.00;;
8568;SDS011;4322;51.104;-4.162;2022-09-13T14:57:24;5.10;;;4.90;;
8568;SDS011;4322;51.104;-4.162;2022-09-13T14:59:56;4.90;;;4.70;;
8568;SDS011;4322;51.104;-4.162;2022-09-13T15:02:28;5.53;;;5.33;;
8568;SDS011;4322;51.104;-4.162;2022-09-13T15:04:59;4.90;;;4.70;;
8568;SDS011;4322;51.104;-4.162;2022-09-13T15:07:28;4.70;;;4.50;;
8568;SDS011;4322;51.104;-4.162;2022-09-13T15:10:04;5.30;;;5.10;;
8568;SDS011;4322;51.104;-4.162;2022-09-13T15:12:35;5.10;;;4.90;;
8568;SDS011;4322;51.104;-4.162;2022-09-13T15:15:18;4.57;;;4.37;;
8568;SDS011;4322;51.104;-4.162;2022-09-13T15:17:53;4.50;;;4.30;;
8568;SDS011;4322;51.104;-4.162;2022-09-13T15:20:23;4.53;;;4.33;;
8568;SDS011;4322;51.104;-4.162;2022-09-13T15:22:53;5.00;;;4.80;;
8568;SDS011;4322;51.104;-4.162;2022-09-13T15:25:23;4.13;;;3.93;;
8568;SDS011;4322;51.104;-4.162;2022-09-13T15:27:55;4.50;;;4.30;;
8568;SDS011;4322;51.104;-4.162;2022-09-13T15:30:25;4.90;;;4.70;;
8568;SDS011;4322;51.104;-4.162;2022-09-13T15:33:04;4.80;;;4.60;;
8568;SDS011;4322;51.104;-4.162;2022-09-13T15:35:41;5.10;;;4.90;;
8568;SDS011;4322;51.104;-4.162;2022-09-13T15:38:14;5.10;;;4.90;;
8568;SDS011;4322;51.104;-4.162;2022-09-13T15:41:00;5.10;;;4.90;;
8568;SDS011;4322;51.104;-4.162;2022-09-13T15:43:30;5.20;;;5.00;;
8568;SDS011;4322;51.104;-4.162;2022-09-13T15:45:59;4.70;;;4.50;;
8568;SDS011;4322;51.104;-4.162;2022-09-13T15:48:31;5.43;;;5.23;;
8568;SDS011;4322;51.104;-4.162;2022-09-13T15:51:04;5.47;;;5.27;;
8568;SDS011;4322;51.104;-4.162;2022-09-13T15:53:35;5.27;;;5.07;;
8568;SDS011;4322;51.104;-4.162;2022-09-13T15:56:04;5.20;;;5.00;;
8568;SDS011;4322;51.104;-4.162;2022-09-13T15:58:35;5.50;;;5.30;;
8568;SDS011;4322;51.104;-4.162;2022-09-13T16:01:03;5.37;;;5.17;;
8568;SDS011;4322;51.104;-4.162;2022-09-13T16:03:32;6.03;;;5.73;;
8568;SDS011;4322;51.104;-4.162;2022-09-13T16:06:00;5.60;;;5.40;;
8568;SDS011;4322;51.104;-4.162;2022-09-13T16:08:28;6.30;;;6.00;;
8568;SDS011;4322;51.104;-4.162;2022-09-13T16:10:56;6.17;;;5.87;;
8568;SDS011;4322;51.104;-4.162;2022-09-13T16:13:24;5.77;;;5.57;;